»·PEaware :: N847CS KFAT-KMRY

N847CS :: KFAT-KMRY

FLIGHT INFORMATION

Flight Status: Arrived
Operator: Privately registered:
United States
More flights under this callsign
Pilot: Scott W. (33593)
Aircraft: Unknown
(RV10)
More flights by this aircraft type
Origin: KFAT Fresno Yosemite Intl
United States
Destination: KMRY Monterey Peninsula
United States
More flights between these airports :: More routes between these airports
Route: YOSE3 FRA V230 SNS
File this flight plan on PilotEdge
Remarks:
Altitude:
(Current/Filed)
8,000ft
Speed:
(Current/Filed)
155kts
Departed: 08-Feb-21 03:47 PM
Arrived: 08-Feb-21 04:56 PM
Distance/Time
Traveled:
103nm/1:09
Distance/Time
To Go:
Arrived

Flight Plot

Page will automatically refresh every two minutes.

Flight plan parsing failed; only flown route is shown


Map Options




Map Legend


Flown Route
Filed Route
Departure Airport
Arrival Airport
Navaid (VOR, NDB)
Fix

Horizontal Profiles

Position Reports

Time Latitude Longitude Heading Altitude Ground
Speed
08-Feb-21 15:07 36.777256 -119.729118 17 328ft 0kts
08-Feb-21 15:08 36.777256 -119.729118 17 328ft 0kts
08-Feb-21 15:09 36.777256 -119.729118 17 328ft 0kts
08-Feb-21 15:10 36.777256 -119.729118 17 328ft 0kts
08-Feb-21 15:11 36.777256 -119.729118 17 328ft 0kts
08-Feb-21 15:12 36.777256 -119.729118 17 328ft 0kts
08-Feb-21 15:13 36.777256 -119.729118 17 328ft 0kts
08-Feb-21 15:13 36.777256 -119.729118 17 328ft 0kts
08-Feb-21 15:15 36.777256 -119.729118 17 328ft 0kts
08-Feb-21 15:16 36.777256 -119.729118 17 328ft 0kts
08-Feb-21 15:16 36.777256 -119.729118 17 328ft 0kts
08-Feb-21 15:17 36.777256 -119.729118 17 328ft 0kts
08-Feb-21 15:18 36.777256 -119.729118 17 328ft 0kts
08-Feb-21 15:19 36.777256 -119.729118 17 328ft 0kts
08-Feb-21 15:20 36.777256 -119.729118 17 328ft 0kts
08-Feb-21 15:21 36.777256 -119.729118 17 328ft 0kts
08-Feb-21 15:22 36.777256 -119.729118 17 328ft 0kts
08-Feb-21 15:23 36.777256 -119.729118 17 328ft 0kts
08-Feb-21 15:24 36.777256 -119.729118 17 328ft 0kts
08-Feb-21 15:25 36.777256 -119.729118 17 328ft 0kts
08-Feb-21 15:26 36.777257 -119.729118 16 328ft 0kts
08-Feb-21 15:27 36.777261 -119.729117 12 328ft 0kts
08-Feb-21 15:28 36.777261 -119.729117 12 328ft 0kts
08-Feb-21 15:29 36.777261 -119.729117 12 328ft 0kts
08-Feb-21 15:30 36.777261 -119.729117 12 328ft 0kts
08-Feb-21 15:31 36.777261 -119.729117 12 328ft 0kts
08-Feb-21 15:32 36.777261 -119.729117 12 328ft 0kts
08-Feb-21 15:33 36.777261 -119.729117 12 328ft 0kts
08-Feb-21 15:34 36.777261 -119.729117 12 328ft 0kts
08-Feb-21 15:35 36.777276 -119.729118 338 328ft 1kts
08-Feb-21 15:36 36.776996 -119.727427 123 328ft 11kts
08-Feb-21 15:37 36.776718 -119.727007 45 328ft 0kts
08-Feb-21 15:38 36.776719 -119.727007 45 328ft 0kts
08-Feb-21 15:39 36.777277 -119.726224 36 329ft 7kts
08-Feb-21 15:40 36.776534 -119.723522 126 331ft 16kts
08-Feb-21 15:41 36.773522 -119.718173 124 328ft 21kts
08-Feb-21 15:42 36.770135 -119.712167 125 328ft 17kts
08-Feb-21 15:43 36.769984 -119.711066 39 328ft 0kts
08-Feb-21 15:44 36.769999 -119.711049 38 328ft 0kts
08-Feb-21 15:45 36.770909 -119.711273 313 328ft 19kts
08-Feb-21 15:46 36.786795 -119.730996 351 1184ft 105kts
08-Feb-21 15:47 36.817599 -119.729375 13 2043ft 114kts
08-Feb-21 15:48 36.846988 -119.716894 17 3107ft 106kts
08-Feb-21 15:49 36.873105 -119.713531 301 4190ft 98kts
08-Feb-21 15:50 36.875163 -119.746816 272 5210ft 96kts
08-Feb-21 15:51 36.876093 -119.779834 272 6170ft 94kts
08-Feb-21 15:52 36.877249 -119.812325 285 7067ft 93kts
08-Feb-21 15:53 36.874399 -119.843871 260 7880ft 94kts
08-Feb-21 15:54 36.867877 -119.885135 260 7925ft 142kts
08-Feb-21 15:55 36.859608 -119.935312 259 7924ft 148kts
08-Feb-21 15:56 36.851147 -119.985996 259 7925ft 149kts
08-Feb-21 15:57 36.842601 -120.036962 259 7926ft 150kts
08-Feb-21 15:58 36.834020 -120.087965 259 7926ft 150kts
08-Feb-21 15:59 36.825413 -120.138971 259 7926ft 150kts
08-Feb-21 16:00 36.816778 -120.189999 259 7926ft 150kts
08-Feb-21 16:01 36.808097 -120.241159 259 7926ft 150kts
08-Feb-21 16:02 36.799437 -120.292061 259 7926ft 150kts
08-Feb-21 16:03 36.790887 -120.342103 260 8008ft 146kts
08-Feb-21 16:04 36.782332 -120.392167 260 8008ft 148kts
08-Feb-21 16:05 36.773717 -120.442402 260 8008ft 148kts
08-Feb-21 16:06 36.765065 -120.492714 260 8007ft 147kts
08-Feb-21 16:07 36.756441 -120.542741 260 8005ft 147kts
08-Feb-21 16:08 36.747804 -120.592685 260 8003ft 147kts
08-Feb-21 16:09 36.739139 -120.642668 260 8001ft 147kts
08-Feb-21 16:10 36.730416 -120.692860 259 8001ft 148kts
08-Feb-21 16:11 36.721668 -120.743081 259 8002ft 148kts
08-Feb-21 16:12 36.714734 -120.793511 266 8010ft 146kts
08-Feb-21 16:13 36.711618 -120.843891 266 8017ft 145kts
08-Feb-21 16:14 36.708605 -120.893844 266 8025ft 144kts
08-Feb-21 16:15 36.705614 -120.943376 265 8033ft 143kts
08-Feb-21 16:16 36.702598 -120.992820 265 8036ft 142kts
08-Feb-21 16:17 36.699573 -121.042132 265 8036ft 142kts
08-Feb-21 16:18 36.696516 -121.091760 265 7993ft 145kts
08-Feb-21 16:19 36.693416 -121.141737 265 7990ft 143kts
08-Feb-21 16:20 36.690323 -121.191261 265 7990ft 143kts
08-Feb-21 16:21 36.687198 -121.240919 265 7990ft 143kts
08-Feb-21 16:22 36.684084 -121.290263 266 7990ft 143kts
08-Feb-21 16:23 36.680932 -121.339777 266 7989ft 143kts
08-Feb-21 16:24 36.677753 -121.389405 266 7989ft 143kts
08-Feb-21 16:25 36.677742 -121.438694 282 7991ft 142kts
08-Feb-21 16:26 36.686144 -121.487047 282 7990ft 142kts
08-Feb-21 16:27 36.694598 -121.535417 282 7991ft 142kts
08-Feb-21 16:28 36.703090 -121.583891 282 7993ft 142kts
08-Feb-21 16:29 36.711454 -121.631559 283 7994ft 137kts
08-Feb-21 16:30 36.719504 -121.677594 282 7999ft 135kts
08-Feb-21 16:31 36.727545 -121.723383 281 7942ft 139kts
08-Feb-21 16:32 36.735964 -121.770649 282 7080ft 135kts
08-Feb-21 16:33 36.744139 -121.815230 282 6038ft 131kts
08-Feb-21 16:34 36.752622 -121.860424 282 4925ft 135kts
08-Feb-21 16:35 36.761289 -121.905709 282 4011ft 130kts
08-Feb-21 16:36 36.769088 -121.945521 282 3940ft 111kts
08-Feb-21 16:37 36.776469 -121.982749 282 3317ft 109kts
08-Feb-21 16:38 36.783875 -122.019758 282 2711ft 109kts
08-Feb-21 16:39 36.791008 -122.054862 282 2604ft 101kts
08-Feb-21 16:40 36.797951 -122.088561 282 2606ft 100kts
08-Feb-21 16:41 36.804928 -122.122078 282 2607ft 99kts
08-Feb-21 16:42 36.804033 -122.153065 207 2605ft 102kts
08-Feb-21 16:43 36.775333 -122.157763 192 2608ft 105kts
08-Feb-21 16:44 36.746334 -122.162043 192 2608ft 105kts
08-Feb-21 16:45 36.717384 -122.166316 192 2608ft 105kts
08-Feb-21 16:46 36.693941 -122.143277 132 2608ft 115kts
08-Feb-21 16:47 36.675732 -122.109003 114 2613ft 128kts
08-Feb-21 16:48 36.662109 -122.067320 115 2608ft 132kts
08-Feb-21 16:50 36.647841 -122.024861 115 2608ft 132kts
08-Feb-21 16:51 36.634396 -121.984890 115 2339ft 120kts
08-Feb-21 16:52 36.621632 -121.946981 115 1734ft 119kts
08-Feb-21 16:53 36.609076 -121.909722 115 1098ft 110kts
08-Feb-21 16:54 36.599425 -121.881137 115 622ft 88kts
08-Feb-21 16:55 36.590424 -121.854433 118 168ft 74kts
08-Feb-21 16:56 36.589156 -121.847116 16 171ft 0kts

Navigation Log

Ident Type
Flight plan parsing failed, navigation log unavailable